クライストチャーチ の空港の天気 - METARとTAF

クライストチャーチ国際空港 ( NZCH / CHC ) - ニュージーランド クライストチャーチ
飛行場実況気象(Metar)
観測時間06/01 20:00 NZST (06/01 08:00 UTC)
風向・風速北東 6m/s
視程10km以上
天気現象
全天を覆う雲 雲底高度 180m
気温12℃
湿度100%
気圧1017hPa
METARNZCH 010800Z AUTO 05011KT 9999 OVC006/// 12/12 Q1017 TEMPO 6000 DZ BKN004
過去の天気等 Google飛行場航空写真 Wunderground天気予報

過去48時間のMETAR

飛行場予報(TAF)
発表時間: 6/01 17:01 NZST (6/01 05:01 UTC)
予報対象時間: 1日18時 NZST ~ 2日18時 NZST
風向・風速東北東 6m/s
視程10km以上
天気現象弱い雨霧雨
全天の8割程度の雲 雲底高度 210m
1日18時 NZST ~ 2日3時 NZST に一時的に
視程4000m
天気現象霧雨
全天の8割程度の雲 雲底高度 120m
2日0時 NZST ~ 2日2時 NZST に徐々に
風向・風速不定 1m/s
2日3時 NZST から 確率 40% で
視程500m
天気現象
全天の8割程度の雲 雲底高度 60m
2日9時 NZST ~ 2日11時 NZST に徐々に
少しの雲 雲底高度 460m
TAF NZCH 010501Z 0106/0206 06012KT 9999 -RADZ BKN007
TEMPO 0106/0115 4000 DZ BKN004
BECMG 0112/0114 VRB02KT
PROB40 0115/0120 0500 FG BKN002
BECMG 0121/0123 FEW015